Airfield :
LOGIN :

Register | Disclaimer

   EN    FR    IT 

 










Legend :    VFR   Marginal VFR   IFR   Intensive IFR   Very Intensive IFR
Visi :
Ceiling :
>= 8 km
>= 3000ft
5 to 8 km
1000 to 3000 ft
1500m to 5 km
500 to 1000 ft
800 to 1500m
200 to 500 ft
< 800m
< 200 ft
Symbols :   Thunderstorms  Fog  Heavy snow  Heavy precipitations  Wind > 20 kt
SIGMETs :     Misc.  Thunderstorms  Icing  Turbulence  Mountain Waves  Volcanic Ashes






- Airport Elevation : 32 ft
- IATA code : LKZ


EGUL - RAF Lakenheath

CURRENT METAR :
  • 251626Z AUTO 16005KT 9999 FEW008 BKN015 06/05 A3001 RMK AO2 VIS 3600 RWY06 SLP166 $

EXPIRED METARs :
  • 251556Z AUTO 16006KT 9999 OVC013 06/05 A3001 RMK AO2 VIS 4000 RWY06 OVC V BKN SLP166 T00620052 $
  • 251531Z AUTO 15006KT 9999 BKN011 06/05 A3001 RMK AO2 VIS 3200 RWY06 CIG 009 RWY06 SLP166 $
  • 251456Z AUTO 18006KT 9000 BR OVC009 06/06 A3002 RMK AO2 SLP170 T00620055 57017 $
  • 251441Z AUTO 18005KT 9000 BR OVC009 06/05 A3003 RMK AO2 CIG 008 RWY06 SLP173 $
  • 251356Z AUTO 20006KT 9999 BKN014 06/04 A3004 RMK AO2 CIG 013 RWY06 SLP176 T00640042 $

TAF TAF EGUL
Valid from the 24 at 18:00 until the 25 at 19:00 UTC


241819Z 2418/2519 VRB03KT 9999 OVC020 QNH3017INS
TEMPO 2422/2506 6000 BR BKN009
TEMPO 2506/2508 BKN005
BECMG 2508/2509 20012KT 9999 NSW OVC020 QNH2998INS TX08/2514Z TN05/2506Z LAST NO AMDS AFT 2418 NEXT 2705



MET'MAP, your aeronautical weather chart ! - Copyright ORBIFLY December 2007 - Disclaimer

ORBIFLY MET'MAP TEAM :

Programming & Development : Alexandra Zaïnal
Concept & original design : Baudouin d'Aumeries
Assistance for programming : Marc-Olivier Méhu
Technical & hardware support : Manuel Goepfert

Contact : metmap@orbifly.com




SOURCES & CREDITS :

   NOAA